Time;durP1;ratioP1;P1;durP2;ratioP2;P2;SDS_P1;SDS_P2;PMS_P1;PMS_P2;Temp;Humidity;BMP_temperature;BMP_pressure;BME280_temperature;BME280_humidity;BME280_pressure;Samples;Min_cycle;Max_cycle;Signal;HPM_P1;HPM_P2
2021/03/09 00:01:59;;;;;;;33.67;15.97;;;0.40;99.90;;;;;;4159108;28;20742;-65
2021/03/09 00:04:00;;;;;;;30.80;15.40;;;0.40;99.90;;;;;;4157818;28;21339;-63
2021/03/09 00:06:01;;;;;;;31.03;14.57;;;0.40;99.90;;;;;;4158290;28;20290;-64
2021/03/09 00:08:02;;;;;;;30.60;14.00;;;0.40;99.90;;;;;;4156929;28;20267;-65
2021/03/09 00:10:05;;;;;;;29.10;15.30;;;0.40;99.90;;;;;;4157089;28;20283;-65
2021/03/09 00:12:06;;;;;;;28.93;14.60;;;0.40;99.90;;;;;;4157627;28;20267;-64
2021/03/09 00:14:07;;;;;;;26.93;12.63;;;0.30;99.90;;;;;;4156318;28;20345;-65
2021/03/09 00:16:09;;;;;;;28.03;13.30;;;0.30;99.90;;;;;;4157803;28;21153;-65
2021/03/09 00:18:11;;;;;;;27.17;14.13;;;0.30;99.90;;;;;;4156432;28;20998;-64
2021/03/09 00:20:13;;;;;;;28.87;14.37;;;0.30;99.90;;;;;;4158568;28;20263;-64
2021/03/09 00:22:14;;;;;;;30.40;13.77;;;0.30;99.90;;;;;;4156549;28;20266;-66
2021/03/09 00:24:16;;;;;;;28.17;13.77;;;0.20;99.90;;;;;;4158263;28;20344;-64
2021/03/09 00:26:17;;;;;;;29.60;14.60;;;0.20;99.90;;;;;;4156415;28;20270;-65
2021/03/09 00:28:20;;;;;;;30.43;13.07;;;0.20;99.90;;;;;;4157644;28;20763;-64
2021/03/09 00:30:21;;;;;;;32.50;13.63;;;0.20;99.90;;;;;;4156161;28;20332;-64
2021/03/09 00:32:22;;;;;;;31.47;14.60;;;0.10;99.90;;;;;;4158342;28;20267;-64
2021/03/09 00:34:23;;;;;;;28.03;13.37;;;0.10;99.90;;;;;;4156757;28;21087;-63
2021/03/09 00:36:25;;;;;;;25.00;13.50;;;0.10;99.90;;;;;;4158108;28;20275;-67
2021/03/09 00:38:26;;;;;;;26.90;12.83;;;0.10;99.90;;;;;;4155377;28;20309;-65
2021/03/09 00:40:27;;;;;;;30.60;14.63;;;0.00;99.90;;;;;;4157652;28;20275;-66
2021/03/09 00:42:28;;;;;;;30.40;15.13;;;0.10;99.90;;;;;;4157043;28;20267;-65
2021/03/09 00:44:29;;;;;;;29.43;14.47;;;0.00;99.90;;;;;;4155701;28;20349;-65
2021/03/09 00:46:30;;;;;;;30.77;13.03;;;0.00;99.90;;;;;;4157123;28;20700;-65
2021/03/09 00:48:39;;;;;;;27.50;13.93;;;0.00;99.90;;;;;;4156360;28;20259;-65
2021/03/09 00:50:40;;;;;;;29.87;13.70;;;0.10;99.90;;;;;;4157806;28;20335;-65
2021/03/09 00:52:41;;;;;;;28.37;13.70;;;0.00;99.90;;;;;;4156120;28;20321;-65
2021/03/09 00:54:42;;;;;;;24.50;13.07;;;0.00;99.90;;;;;;4157483;28;20342;-65
2021/03/09 00:56:43;;;;;;;27.07;13.10;;;0.10;99.90;;;;;;4155470;28;20301;-64
2021/03/09 00:58:45;;;;;;;26.80;13.30;;;0.10;99.90;;;;;;4157921;28;20263;-64
2021/03/09 01:00:46;;;;;;;29.13;14.23;;;0.10;99.90;;;;;;4155882;28;20679;-64
2021/03/09 01:02:47;;;;;;;28.13;13.83;;;0.10;99.90;;;;;;4157213;28;20341;-64
2021/03/09 01:04:48;;;;;;;29.83;13.43;;;0.10;99.90;;;;;;4156227;28;21374;-66
2021/03/09 01:06:49;;;;;;;26.83;13.80;;;0.10;99.90;;;;;;4157724;28;20336;-65
2021/03/09 01:08:50;;;;;;;30.23;14.43;;;0.10;99.90;;;;;;4156227;28;20871;-64
2021/03/09 01:10:52;;;;;;;26.37;13.33;;;0.10;99.90;;;;;;4157010;28;20271;-65
2021/03/09 01:12:53;;;;;;;27.80;13.83;;;0.10;99.90;;;;;;4155404;28;20266;-66
2021/03/09 01:14:54;;;;;;;30.00;11.77;;;0.10;99.90;;;;;;4156389;28;20274;-65
2021/03/09 01:16:56;;;;;;;24.97;12.50;;;0.10;99.90;;;;;;4138636;28;20357;-64
2021/03/09 01:18:57;;;;;;;27.53;13.00;;;0.10;99.90;;;;;;4138891;28;20272;-65
2021/03/09 01:20:58;;;;;;;25.33;12.17;;;0.10;99.90;;;;;;4156845;28;20297;-65
2021/03/09 01:22:59;;;;;;;28.00;12.73;;;0.10;99.90;;;;;;4155412;28;20274;-64
2021/03/09 01:25:02;;;;;;;24.70;11.83;;;0.00;99.90;;;;;;4139208;28;20318;-65
2021/03/09 01:27:04;;;;;;;25.47;12.37;;;0.10;99.90;;;;;;4154936;28;20279;-65
2021/03/09 01:29:05;;;;;;;25.50;12.23;;;0.00;99.90;;;;;;4157295;28;20301;-64
2021/03/09 01:31:06;;;;;;;27.67;12.57;;;0.00;99.90;;;;;;4155811;28;20270;-65
2021/03/09 01:33:08;;;;;;;24.53;12.70;;;0.00;99.90;;;;;;4157522;28;20320;-64
2021/03/09 01:35:09;;;;;;;23.20;11.40;;;0.00;99.90;;;;;;4155308;28;20282;-65
2021/03/09 01:37:11;;;;;;;21.97;11.03;;;0.00;99.90;;;;;;4156586;28;20270;-65
2021/03/09 01:39:13;;;;;;;23.53;11.40;;;0.00;99.90;;;;;;4155678;28;20750;-65
2021/03/09 01:41:14;;;;;;;25.13;11.87;;;0.00;99.90;;;;;;4157222;28;20267;-64
2021/03/09 01:43:16;;;;;;;24.23;11.87;;;0.00;99.90;;;;;;4155928;28;20286;-64
2021/03/09 01:45:18;;;;;;;23.20;11.23;;;0.00;99.90;;;;;;4155841;28;21003;-65
2021/03/09 01:47:20;;;;;;;19.43;10.40;;;0.00;99.90;;;;;;4155974;28;20274;-65
2021/03/09 01:49:22;;;;;;;24.13;10.53;;;0.00;99.90;;;;;;4137932;28;20302;-68
2021/03/09 01:51:24;;;;;;;19.97;9.53;;;0.00;99.90;;;;;;4139511;28;20268;-65
2021/03/09 01:53:25;;;;;;;22.03;10.80;;;0.00;99.90;;;;;;4138917;28;20268;-65
2021/03/09 01:55:26;;;;;;;19.87;9.23;;;0.00;99.90;;;;;;4146574;28;20301;-65
2021/03/09 01:57:27;;;;;;;20.37;10.23;;;0.00;99.90;;;;;;4154410;28;20674;-65
2021/03/09 01:59:30;;;;;;;19.67;9.87;;;0.00;99.90;;;;;;4139217;28;20279;-65
2021/03/09 02:01:31;;;;;;;23.60;10.77;;;0.00;99.90;;;;;;4155269;28;20271;-62
2021/03/09 02:03:33;;;;;;;19.67;10.53;;;0.00;99.90;;;;;;4139325;28;20805;-65
2021/03/09 02:05:35;;;;;;;22.27;10.07;;;0.00;99.90;;;;;;4138282;28;20283;-64
2021/03/09 02:07:37;;;;;;;21.93;10.67;;;0.00;99.90;;;;;;4157526;28;21144;-64
2021/03/09 02:09:38;;;;;;;22.50;10.17;;;0.00;99.90;;;;;;4154907;28;20274;-64
2021/03/09 02:12:06;;;;;;;23.60;11.07;;;-0.10;99.90;;;;;;4157011;28;20830;-64
2021/03/09 02:14:17;;;;;;;29.00;11.07;;;-0.10;99.90;;;;;;4138760;28;20271;-65
2021/03/09 02:16:53;;;;;;;21.60;10.75;;;-0.10;99.90;;;;;;4123486;28;20358;-64
2021/03/09 02:19:20;;;;;;;21.33;10.37;;;-0.10;99.90;;;;;;4118807;28;20100;-62
2021/03/09 02:21:33;;;;;;;21.80;9.87;;;-0.10;99.90;;;;;;4140188;28;20755;-65
2021/03/09 02:23:46;;;;;;;22.13;9.70;;;-0.10;99.90;;;;;;4149194;28;20287;-64
2021/03/09 02:26:06;;;;;;;24.57;9.67;;;-0.10;99.90;;;;;;4156419;28;20287;-63
2021/03/09 02:28:11;;;;;;;19.90;9.53;;;-0.20;99.90;;;;;;4155158;28;21148;-62
2021/03/09 02:30:21;;;;;;;24.70;10.40;;;-0.10;99.90;;;;;;4156656;28;20255;-65
2021/03/09 02:32:26;;;;;;;23.50;10.57;;;-0.20;99.90;;;;;;4154813;28;20754;-64
2021/03/09 02:34:34;;;;;;;24.33;10.03;;;-0.30;99.90;;;;;;4157053;28;20087;-63
2021/03/09 02:36:37;;;;;;;21.20;10.60;;;-0.40;99.90;;;;;;4154457;28;20270;-63
2021/03/09 02:38:58;;;;;;;23.63;11.43;;;-0.40;99.90;;;;;;4156836;28;20329;-63
2021/03/09 02:41:01;;;;;;;19.43;9.77;;;-0.40;99.90;;;;;;4154984;28;20282;-66
2021/03/09 02:43:10;;;;;;;22.87;11.27;;;-0.50;99.90;;;;;;4156266;28;20286;-63
2021/03/09 02:45:14;;;;;;;21.33;10.47;;;-0.50;99.90;;;;;;4154372;28;20344;-64
2021/03/09 02:47:16;;;;;;;22.10;9.77;;;-0.50;99.90;;;;;;4138740;28;20291;-64
2021/03/09 02:49:20;;;;;;;20.00;9.87;;;-0.40;99.90;;;;;;4155095;28;20271;-64
2021/03/09 02:51:26;;;;;;;18.30;9.73;;;-0.50;99.90;;;;;;4156810;28;20608;-64
2021/03/09 02:53:32;;;;;;;20.03;9.17;;;-0.60;99.90;;;;;;4154472;28;20774;-64
2021/03/09 02:55:35;;;;;;;22.83;9.93;;;-0.60;99.90;;;;;;4156996;28;20266;-65
2021/03/09 02:57:40;;;;;;;19.63;9.23;;;-0.70;99.90;;;;;;4154081;28;20344;-65
2021/03/09 02:59:42;;;;;;;22.27;9.00;;;-0.70;99.90;;;;;;4158195;28;20274;-64
2021/03/09 03:01:46;;;;;;;16.40;8.17;;;-0.80;99.90;;;;;;4157394;28;20340;-64
2021/03/09 03:03:48;;;;;;;21.53;8.90;;;-0.80;99.90;;;;;;4159184;28;20697;-64
2021/03/09 03:05:49;;;;;;;20.47;8.40;;;-0.90;99.90;;;;;;4158251;28;20282;-64
2021/03/09 03:07:52;;;;;;;42.27;11.27;;;-1.00;99.90;;;;;;4158909;28;20676;-64
2021/03/09 03:09:53;;;;;;;21.47;9.30;;;-1.00;99.90;;;;;;4157596;28;20321;-63
2021/03/09 03:11:56;;;;;;;23.60;9.77;;;-1.10;99.90;;;;;;4158658;28;20251;-64
2021/03/09 03:14:01;;;;;;;22.63;10.30;;;-1.10;99.90;;;;;;4156934;28;20263;-64
2021/03/09 03:16:03;;;;;;;24.83;10.10;;;-1.20;99.90;;;;;;4158116;28;20266;-64
2021/03/09 03:18:10;;;;;;;23.07;10.13;;;-1.20;99.90;;;;;;4158352;28;20293;-64
2021/03/09 03:20:15;;;;;;;21.77;8.93;;;-1.20;99.90;;;;;;4157778;28;20283;-65
2021/03/09 03:22:18;;;;;;;33.70;9.00;;;-1.10;99.90;;;;;;4158861;28;20274;-64
2021/03/09 03:24:19;;;;;;;30.20;10.27;;;-1.10;99.90;;;;;;4157770;28;20278;-65
2021/03/09 03:26:23;;;;;;;22.90;8.70;;;-1.20;99.90;;;;;;4158569;28;20797;-64
2021/03/09 03:28:25;;;;;;;20.53;9.00;;;-1.20;99.90;;;;;;4157454;28;20259;-65
2021/03/09 03:30:26;;;;;;;24.17;8.43;;;-1.10;99.90;;;;;;4158910;28;20270;-65
2021/03/09 03:32:27;;;;;;;18.57;7.77;;;-1.10;99.90;;;;;;4157228;28;20266;-63
2021/03/09 03:34:29;;;;;;;21.37;7.90;;;-1.20;99.90;;;;;;4159399;28;20271;-64
2021/03/09 03:36:34;;;;;;;19.30;7.63;;;-1.20;99.90;;;;;;4156942;28;20393;-63
2021/03/09 03:38:37;;;;;;;42.17;11.80;;;-1.20;99.90;;;;;;4158008;28;20321;-63
2021/03/09 03:40:38;;;;;;;26.87;9.20;;;-1.20;99.90;;;;;;4157322;28;20666;-63
2021/03/09 03:42:40;;;;;;;13.43;6.47;;;-1.20;99.90;;;;;;4159167;28;20328;-64
2021/03/09 03:44:42;;;;;;;14.20;7.57;;;-1.30;99.90;;;;;;4156526;28;20299;-63
2021/03/09 03:46:43;;;;;;;15.10;6.33;;;-1.30;99.90;;;;;;4158016;28;20282;-64
2021/03/09 03:48:46;;;;;;;15.33;6.13;;;-1.30;99.90;;;;;;4156902;28;20816;-64
2021/03/09 03:50:52;;;;;;;15.37;6.83;;;-1.20;99.90;;;;;;4157808;28;20259;-65
2021/03/09 03:53:08;;;;;;;12.50;6.43;;;-1.30;99.90;;;;;;4156906;28;20278;-65
2021/03/09 03:55:46;;;;;;;12.50;6.27;;;-1.30;99.90;;;;;;4158052;28;20271;-65
2021/03/09 03:57:49;;;;;;;13.97;6.00;;;-1.30;99.90;;;;;;4156005;28;20321;-65
2021/03/09 03:59:56;;;;;;;13.13;6.83;;;-1.30;99.90;;;;;;4158362;28;20262;-64
2021/03/09 04:02:03;;;;;;;14.27;6.30;;;-1.30;99.90;;;;;;4138720;28;20787;-64
2021/03/09 04:04:08;;;;;;;12.30;5.83;;;-1.30;99.90;;;;;;4158050;28;20290;-62
2021/03/09 04:06:10;;;;;;;14.10;6.40;;;-1.30;99.90;;;;;;4157195;28;20321;-64
2021/03/09 04:08:13;;;;;;;16.30;7.83;;;-1.30;99.90;;;;;;4157782;28;20672;-64
2021/03/09 04:10:14;;;;;;;21.33;6.47;;;-1.30;99.90;;;;;;4157340;28;20305;-65
2021/03/09 04:12:17;;;;;;;13.87;5.80;;;-1.30;99.90;;;;;;4157406;28;20266;-65
2021/03/09 04:14:19;;;;;;;13.20;5.40;;;-1.30;99.90;;;;;;4157518;28;20313;-65
2021/03/09 04:16:20;;;;;;;18.30;6.17;;;-1.30;99.90;;;;;;4156869;28;20317;-64
2021/03/09 04:18:25;;;;;;;14.87;5.63;;;-1.30;99.90;;;;;;4158045;28;20819;-64
2021/03/09 04:20:27;;;;;;;11.70;6.30;;;-1.30;99.90;;;;;;4155793;28;20328;-63
2021/03/09 04:22:30;;;;;;;14.07;6.20;;;-1.30;99.90;;;;;;4157908;28;20324;-65
2021/03/09 04:24:32;;;;;;;19.93;8.37;;;-1.30;99.90;;;;;;4156439;28;20285;-65
2021/03/09 04:26:34;;;;;;;22.90;8.30;;;-1.30;99.90;;;;;;4158550;28;21147;-64
2021/03/09 04:28:36;;;;;;;17.53;8.07;;;-1.30;99.90;;;;;;4156092;28;21312;-64
2021/03/09 04:30:38;;;;;;;20.93;10.43;;;-1.30;99.90;;;;;;4157527;28;20345;-64
2021/03/09 04:32:39;;;;;;;20.70;10.47;;;-1.40;99.90;;;;;;4155922;28;20416;-64
2021/03/09 04:34:41;;;;;;;25.23;10.33;;;-1.40;99.90;;;;;;4157597;28;20690;-65
2021/03/09 04:36:43;;;;;;;17.87;9.27;;;-1.40;99.90;;;;;;4156229;28;20339;-64
2021/03/09 04:38:46;;;;;;;24.57;10.13;;;-1.40;99.90;;;;;;4139758;28;20337;-65
2021/03/09 04:40:47;;;;;;;20.13;8.27;;;-1.50;99.90;;;;;;4137864;28;20335;-64
2021/03/09 04:42:49;;;;;;;19.23;8.83;;;-1.50;99.90;;;;;;4157614;28;20274;-65
2021/03/09 04:44:50;;;;;;;17.43;8.47;;;-1.50;99.90;;;;;;4156461;28;20287;-65
2021/03/09 04:46:52;;;;;;;15.40;7.63;;;-1.50;99.90;;;;;;4156843;28;20271;-63
2021/03/09 04:48:54;;;;;;;22.70;7.90;;;-1.50;99.90;;;;;;4156406;28;21729;-66
2021/03/09 04:51:03;;;;;;;16.20;7.63;;;-1.50;99.90;;;;;;4138647;28;20284;-65
2021/03/09 04:53:07;;;;;;;19.27;8.00;;;-1.50;99.90;;;;;;4157133;28;20267;-65
2021/03/09 04:55:10;;;;;;;21.37;11.13;;;-1.50;99.90;;;;;;4155497;28;20279;-64
2021/03/09 04:57:11;;;;;;;23.53;11.83;;;-1.40;99.90;;;;;;4157193;28;20313;-65
2021/03/09 04:59:13;;;;;;;28.63;12.50;;;-1.40;99.90;;;;;;4155548;28;20658;-64
2021/03/09 05:01:14;;;;;;;22.00;11.17;;;-1.30;99.90;;;;;;4156835;28;20344;-65
2021/03/09 05:03:15;;;;;;;23.07;10.07;;;-1.30;99.90;;;;;;4154230;28;20282;-65
2021/03/09 05:05:18;;;;;;;25.50;10.83;;;-1.30;99.90;;;;;;4157120;28;20298;-65
2021/03/09 05:07:19;;;;;;;24.40;9.80;;;-1.30;99.90;;;;;;4154912;28;20639;-64
2021/03/09 05:09:20;;;;;;;19.83;8.70;;;-1.30;99.90;;;;;;4139605;28;20379;-65
2021/03/09 05:11:21;;;;;;;18.87;8.97;;;-1.30;99.90;;;;;;4155494;28;20365;-69
2021/03/09 05:13:22;;;;;;;20.57;9.63;;;-1.40;99.90;;;;;;4157382;28;20267;-68
2021/03/09 05:15:24;;;;;;;26.30;8.57;;;-1.40;99.90;;;;;;4155448;28;20255;-68
2021/03/09 05:17:25;;;;;;;20.37;8.73;;;-1.40;99.90;;;;;;4156538;28;20519;-68
2021/03/09 05:19:26;;;;;;;20.53;8.80;;;-1.40;99.90;;;;;;4155041;28;20334;-66
2021/03/09 05:21:27;;;;;;;23.70;8.93;;;-1.30;99.90;;;;;;4156014;28;20270;-68
2021/03/09 05:23:28;;;;;;;31.37;9.13;;;-1.30;99.90;;;;;;4156435;28;20328;-66
2021/03/09 05:25:30;;;;;;;16.33;7.90;;;-1.30;99.90;;;;;;4154230;28;20860;-67
2021/03/09 05:27:31;;;;;;;24.30;8.80;;;-1.30;99.90;;;;;;4156586;28;20263;-65
2021/03/09 05:29:32;;;;;;;28.77;9.13;;;-1.20;99.90;;;;;;4154449;28;20804;-65
2021/03/09 05:31:34;;;;;;;23.60;9.40;;;-1.20;99.90;;;;;;4156467;28;20266;-66
2021/03/09 05:33:35;;;;;;;24.63;9.80;;;-1.10;99.90;;;;;;4154730;28;20278;-64
2021/03/09 05:35:36;;;;;;;20.67;9.23;;;-0.80;99.90;;;;;;4156568;28;20266;-66
2021/03/09 05:37:37;;;;;;;25.73;9.03;;;-0.50;99.90;;;;;;4154860;28;20345;-63
2021/03/09 05:39:39;;;;;;;24.70;10.47;;;-0.50;99.90;;;;;;4156253;28;21228;-65
2021/03/09 05:41:40;;;;;;;18.87;9.63;;;-0.50;99.90;;;;;;4154090;28;20690;-65
2021/03/09 05:43:41;;;;;;;26.23;10.40;;;-0.60;99.90;;;;;;4156319;28;20332;-64
2021/03/09 05:45:43;;;;;;;22.33;10.33;;;-0.50;99.90;;;;;;4155159;28;20275;-65
2021/03/09 05:47:44;;;;;;;24.90;9.70;;;-0.50;99.90;;;;;;4156128;28;20340;-64
2021/03/09 05:49:48;;;;;;;19.33;9.13;;;-0.50;99.90;;;;;;4154643;28;20305;-64
2021/03/09 05:51:51;;;;;;;21.33;8.97;;;-0.50;99.90;;;;;;4155316;28;21128;-64
2021/03/09 05:53:52;;;;;;;18.13;8.17;;;-0.50;99.90;;;;;;4155700;28;20263;-65
2021/03/09 05:55:53;;;;;;;17.27;7.93;;;-0.40;99.90;;;;;;4155016;28;21136;-64
2021/03/09 05:57:57;;;;;;;19.97;9.00;;;-0.40;99.90;;;;;;4155049;28;20547;-64
2021/03/09 05:59:58;;;;;;;14.73;7.33;;;-0.40;99.90;;;;;;4154871;28;20263;-64
2021/03/09 06:01:59;;;;;;;22.10;8.37;;;-0.40;99.90;;;;;;4153466;28;20341;-61
2021/03/09 06:04:00;;;;;;;24.23;10.10;;;-0.40;99.90;;;;;;4152669;28;21221;-64
2021/03/09 06:06:02;;;;;;;19.30;10.20;;;-0.40;99.90;;;;;;4155578;28;20317;-67
2021/03/09 06:08:03;;;;;;;33.57;15.23;;;-0.50;99.90;;;;;;4154481;28;20267;-63
2021/03/09 06:10:17;;;;;;;38.03;16.60;;;-0.50;99.90;;;;;;4156901;28;20325;-66
2021/03/09 06:12:24;;;;;;;50.63;21.53;;;-0.50;99.90;;;;;;4155313;28;20304;-64
2021/03/09 06:14:25;;;;;;;60.93;27.87;;;-0.40;99.90;;;;;;4156110;28;20263;-65
2021/03/09 06:16:33;;;;;;;37.10;18.30;;;-0.30;99.90;;;;;;4154550;28;20254;-64
2021/03/09 06:18:34;;;;;;;38.60;18.60;;;-0.30;99.90;;;;;;4156390;28;20274;-64
2021/03/09 06:20:36;;;;;;;33.20;17.20;;;-0.30;99.90;;;;;;4154653;28;20758;-64
2021/03/09 06:22:39;;;;;;;27.97;15.57;;;-0.30;99.90;;;;;;4156217;28;20263;-61
2021/03/09 06:24:41;;;;;;;23.33;8.67;;;-0.20;99.90;;;;;;4154811;28;20366;-68
2021/03/09 06:26:42;;;;;;;18.03;8.17;;;-0.20;99.90;;;;;;4155126;28;20876;-66
2021/03/09 06:28:43;;;;;;;20.43;9.60;;;-0.10;99.90;;;;;;4154751;28;20247;-63
2021/03/09 06:30:44;;;;;;;21.27;10.50;;;-0.10;99.90;;;;;;4156070;28;20263;-70
2021/03/09 06:32:46;;;;;;;19.10;7.43;;;0.00;99.90;;;;;;4157865;28;20259;-69
2021/03/09 06:34:49;;;;;;;39.87;16.30;;;0.10;99.90;;;;;;4158333;28;20316;-70
2021/03/09 06:37:06;;;;;;;36.93;17.93;;;0.20;99.90;;;;;;4159521;28;20266;-70
2021/03/09 06:39:07;;;;;;;27.67;12.30;;;0.30;99.90;;;;;;4158528;28;20266;-70
2021/03/09 06:41:16;;;;;;;26.27;11.37;;;0.50;99.90;;;;;;4159214;28;20305;-65
2021/03/09 06:43:18;;;;;;;23.60;9.30;;;0.60;99.90;;;;;;4157379;28;20332;-65
2021/03/09 06:45:20;;;;;;;54.13;25.30;;;0.80;99.90;;;;;;4158290;28;20368;-65
2021/03/09 06:47:52;;;;;;;32.87;14.53;;;0.90;99.20;;;;;;4157468;28;20325;-64
2021/03/09 06:49:54;;;;;;;23.63;13.13;;;1.00;98.50;;;;;;4141919;28;20279;-65
2021/03/09 06:52:12;;;;;;;22.77;11.37;;;1.30;98.40;;;;;;4157539;28;20332;-67
2021/03/09 06:54:13;;;;;;;18.60;8.70;;;1.50;96.10;;;;;;4158532;28;20313;-64
2021/03/09 06:56:25;;;;;;;22.50;10.57;;;1.60;96.10;;;;;;4157989;28;20278;-68
2021/03/09 06:58:28;;;;;;;22.10;11.67;;;1.70;96.40;;;;;;4158507;28;20286;-67
2021/03/09 07:00:29;;;;;;;21.57;10.57;;;2.00;95.50;;;;;;4157124;28;20267;-64
2021/03/09 07:02:33;;;;;;;24.57;13.20;;;2.10;94.20;;;;;;4158332;28;20274;-66
2021/03/09 07:04:40;;;;;;;24.00;12.57;;;2.20;93.10;;;;;;4158099;28;20294;-63
2021/03/09 07:06:44;;;;;;;22.20;11.33;;;2.30;92.80;;;;;;4159241;28;20686;-64
2021/03/09 07:08:45;;;;;;;22.77;11.90;;;2.50;92.60;;;;;;4157298;28;20758;-63
2021/03/09 07:10:47;;;;;;;27.67;12.73;;;2.80;92.40;;;;;;4158589;28;20320;-66
2021/03/09 07:12:49;;;;;;;19.10;8.33;;;3.30;91.20;;;;;;4157153;28;20259;-65
2021/03/09 07:14:51;;;;;;;14.27;7.73;;;3.70;90.60;;;;;;4159325;28;20274;-64
2021/03/09 07:16:53;;;;;;;16.77;8.37;;;4.20;88.90;;;;;;4139590;28;20326;-64
2021/03/09 07:18:56;;;;;;;20.00;11.70;;;4.20;84.60;;;;;;4159511;28;20274;-64
2021/03/09 07:20:57;;;;;;;18.63;10.20;;;4.40;84.70;;;;;;4157689;28;20267;-65
2021/03/09 07:23:01;;;;;;;30.63;9.93;;;4.70;82.40;;;;;;4158607;28;20313;-64
2021/03/09 07:25:18;;;;;;;15.63;7.30;;;4.80;82.10;;;;;;4139414;28;20325;-69
2021/03/09 07:27:25;;;;;;;17.30;8.93;;;5.20;77.40;;;;;;4141227;28;20334;-63
2021/03/09 07:29:28;;;;;;;16.93;8.53;;;5.50;78.00;;;;;;4156282;28;20340;-64
2021/03/09 07:31:33;;;;;;;16.70;10.23;;;5.70;76.70;;;;;;4158566;28;20320;-67
2021/03/09 07:33:35;;;;;;;16.60;8.23;;;5.50;74.90;;;;;;4157569;28;20660;-64
2021/03/09 07:35:37;;;;;;;17.93;9.00;;;5.40;73.80;;;;;;4157656;28;20279;-65
2021/03/09 07:37:40;;;;;;;17.00;8.53;;;5.60;74.20;;;;;;4157722;28;20271;-64
2021/03/09 07:39:42;;;;;;;17.30;9.10;;;5.90;73.70;;;;;;4157652;28;20336;-67
2021/03/09 07:41:44;;;;;;;19.33;9.57;;;6.10;73.00;;;;;;4157916;28;20279;-65
2021/03/09 07:43:46;;;;;;;22.30;8.77;;;6.10;71.20;;;;;;4155715;28;20274;-64
2021/03/09 07:45:47;;;;;;;22.80;9.37;;;6.20;71.70;;;;;;4158650;28;20330;-64
2021/03/09 07:47:58;;;;;;;21.53;10.07;;;6.30;71.60;;;;;;4156665;28;20731;-64
2021/03/09 07:49:59;;;;;;;19.85;9.50;;;6.70;70.70;;;;;;4158187;28;20337;-66
2021/03/09 07:52:18;;;;;;;12.00;6.70;;;6.90;69.30;;;;;;4156060;28;20043;-64
2021/03/09 07:54:19;;;;;;;12.43;4.60;;;6.80;64.80;;;;;;4157843;28;20605;-64
2021/03/09 07:56:21;;;;;;;7.43;3.97;;;6.50;66.60;;;;;;4155651;28;20338;-63
2021/03/09 07:58:24;;;;;;;7.47;3.77;;;6.40;64.50;;;;;;4158154;28;20313;-65
2021/03/09 08:00:25;;;;;;;6.70;3.53;;;6.30;64.90;;;;;;4156374;28;20275;-66
2021/03/09 08:02:58;;;;;;;5.20;3.07;;;6.20;61.70;;;;;;4157529;28;20267;-69
2021/03/09 08:05:00;;;;;;;5.27;3.10;;;6.10;60.80;;;;;;4151928;28;20295;-65
2021/03/09 08:07:02;;;;;;;7.33;3.00;;;6.30;63.40;;;;;;4157996;28;20817;-64
2021/03/09 08:09:03;;;;;;;8.83;3.20;;;6.60;62.00;;;;;;4156597;28;20739;-65
2021/03/09 08:11:06;;;;;;;9.50;3.40;;;7.00;61.10;;;;;;4158095;28;20263;-64
2021/03/09 08:13:07;;;;;;;7.83;3.67;;;7.40;61.00;;;;;;4155042;28;20340;-64
2021/03/09 08:15:28;;;;;;;7.73;3.33;;;7.40;59.30;;;;;;4157831;28;20275;-63
2021/03/09 08:17:29;;;;;;;14.80;5.23;;;7.20;56.60;;;;;;4156264;28;20341;-66
2021/03/09 08:19:37;;;;;;;9.17;4.57;;;7.10;57.80;;;;;;4157211;28;20263;-67
2021/03/09 08:21:38;;;;;;;8.37;3.73;;;6.80;57.60;;;;;;4156331;28;20334;-66
2021/03/09 08:23:51;;;;;;;6.63;3.27;;;6.60;59.30;;;;;;4158022;28;20811;-64
2021/03/09 08:25:52;;;;;;;10.53;3.43;;;6.60;58.50;;;;;;4156199;28;20752;-65
2021/03/09 08:27:53;;;;;;;7.67;3.00;;;6.40;59.10;;;;;;4157257;28;20743;-65
2021/03/09 08:30:17;;;;;;;6.97;4.03;;;6.70;59.00;;;;;;4156116;28;20263;-65
2021/03/09 08:32:24;;;;;;;9.43;4.00;;;6.90;58.50;;;;;;4147561;28;20659;-64
2021/03/09 08:34:25;;;;;;;11.37;4.80;;;6.70;57.50;;;;;;4155910;28;20356;-63
2021/03/09 08:36:32;;;;;;;10.20;4.47;;;6.60;58.10;;;;;;4157400;28;20324;-64
2021/03/09 08:38:33;;;;;;;6.93;2.70;;;6.50;57.70;;;;;;4155095;28;20309;-66
2021/03/09 08:40:35;;;;;;;4.83;2.30;;;6.40;56.90;;;;;;4156883;28;20270;-65
2021/03/09 08:43:15;;;;;;;5.57;3.13;;;6.70;56.60;;;;;;4156393;28;20259;-65
2021/03/09 08:45:39;;;;;;;5.35;3.38;;;6.60;54.40;;;;;;4157264;28;20295;-64
2021/03/09 08:47:53;;;;;;;11.83;4.40;;;6.90;55.60;;;;;;4155916;28;20095;-64
2021/03/09 08:49:54;;;;;;;7.07;4.27;;;7.00;54.00;;;;;;4156521;28;20344;-64
2021/03/09 08:51:55;;;;;;;5.30;2.80;;;7.00;54.90;;;;;;4155607;28;21048;-64
2021/03/09 08:53:56;;;;;;;9.57;3.77;;;6.80;55.00;;;;;;4157745;28;20325;-64
2021/03/09 08:56:05;;;;;;;10.40;3.67;;;6.90;54.70;;;;;;4155113;28;20283;-64
2021/03/09 08:58:07;;;;;;;7.53;4.17;;;7.00;53.70;;;;;;4156348;28;20334;-64
2021/03/09 09:00:11;;;;;;;9.27;4.60;;;6.70;54.70;;;;;;4155741;28;20297;-64
2021/03/09 09:02:16;;;;;;;8.10;3.87;;;6.40;55.30;;;;;;4156987;28;20271;-65
2021/03/09 09:04:18;;;;;;;8.87;4.30;;;6.40;56.00;;;;;;4156348;28;20639;-64
2021/03/09 09:06:26;;;;;;;8.37;4.77;;;6.70;55.90;;;;;;4156671;28;20325;-64
2021/03/09 09:08:28;;;;;;;6.77;3.90;;;6.70;56.00;;;;;;4155525;28;20309;-64
2021/03/09 09:10:29;;;;;;;11.47;4.77;;;6.60;55.20;;;;;;4155294;28;20666;-65
2021/03/09 09:12:30;;;;;;;6.33;3.80;;;6.40;55.90;;;;;;4156592;28;20312;-64
2021/03/09 09:14:32;;;;;;;8.63;4.23;;;6.50;56.00;;;;;;4154808;28;20329;-64
2021/03/09 09:16:33;;;;;;;9.50;4.63;;;6.70;55.90;;;;;;4157242;28;20316;-65
2021/03/09 09:18:36;;;;;;;12.13;5.63;;;7.00;55.30;;;;;;4155665;28;20270;-64
2021/03/09 09:20:47;;;;;;;6.77;3.70;;;7.00;54.80;;;;;;4157433;28;20282;-64
2021/03/09 09:22:50;;;;;;;5.07;2.80;;;7.10;53.20;;;;;;4155115;28;20294;-63
2021/03/09 09:24:59;;;;;;;5.20;2.83;;;6.80;51.10;;;;;;4156420;28;20037;-64
2021/03/09 09:27:01;;;;;;;7.03;3.77;;;6.20;50.40;;;;;;4154815;28;20825;-66
2021/03/09 09:29:03;;;;;;;12.50;3.60;;;5.90;51.50;;;;;;4155507;28;20329;-64
2021/03/09 09:31:10;;;;;;;8.37;3.10;;;6.00;52.90;;;;;;4154665;28;20251;-64
2021/03/09 09:33:12;;;;;;;7.03;3.70;;;6.00;53.10;;;;;;4156451;28;20275;-64
2021/03/09 09:35:14;;;;;;;7.57;3.60;;;6.00;53.20;;;;;;4155727;28;20251;-63
2021/03/09 09:37:16;;;;;;;9.73;3.67;;;6.20;53.40;;;;;;4157036;28;20267;-64
2021/03/09 09:39:17;;;;;;;7.73;3.63;;;6.30;52.90;;;;;;4154704;28;20808;-65
2021/03/09 09:41:20;;;;;;;9.27;4.63;;;6.60;52.90;;;;;;4156804;28;20267;-65
2021/03/09 09:43:23;;;;;;;7.53;4.17;;;6.70;52.30;;;;;;4154963;28;20262;-64
2021/03/09 09:45:26;;;;;;;7.13;3.00;;;6.70;52.20;;;;;;4156435;28;20286;-64
2021/03/09 09:47:27;;;;;;;7.33;4.00;;;6.70;52.00;;;;;;4155152;28;20259;-64
2021/03/09 09:49:28;;;;;;;5.27;3.33;;;6.80;52.30;;;;;;4156069;28;20494;-65
2021/03/09 09:51:30;;;;;;;9.07;4.53;;;6.70;51.80;;;;;;4156051;28;21110;-65
2021/03/09 09:53:42;;;;;;;7.77;4.60;;;6.80;52.40;;;;;;4153115;28;20685;-67
2021/03/09 09:55:54;;;;;;;8.50;4.43;;;6.90;52.50;;;;;;4155393;28;20818;-66
2021/03/09 09:58:01;;;;;;;5.97;4.23;;;7.10;52.10;;;;;;4154883;28;20307;-66
2021/03/09 10:00:12;;;;;;;8.30;4.30;;;7.40;52.40;;;;;;4155818;28;20037;-64
2021/03/09 10:02:14;;;;;;;;;;;7.50;51.50;;;;;;4155722;28;20091;-66
2021/03/09 10:04:15;;;;;;;7.67;4.00;;;7.70;49.70;;;;;;4154833;28;19967;-66
2021/03/09 10:06:17;;;;;;;10.03;4.00;;;7.60;51.50;;;;;;4155057;28;20049;-67
2021/03/09 10:08:35;;;;;;;6.77;3.10;;;7.50;51.50;;;;;;4161927;28;20630;-64
2021/03/09 10:10:38;;;;;;;6.63;3.63;;;7.50;50.10;;;;;;4141677;28;20498;-66
2021/03/09 10:12:40;;;;;;;7.20;3.57;;;7.30;51.40;;;;;;4162357;28;20072;-64
2021/03/09 10:14:52;;;;;;;8.63;4.90;;;7.20;51.30;;;;;;4159404;28;20585;-64
2021/03/09 10:16:54;;;;;;;10.37;3.97;;;7.10;51.30;;;;;;4160679;28;20333;-67
2021/03/09 10:18:55;;;;;;;12.90;4.13;;;7.00;52.20;;;;;;4159728;28;20777;-67
2021/03/09 10:21:13;;;;;;;18.43;9.10;;;6.90;52.00;;;;;;4161572;28;20025;-66
2021/03/09 10:23:14;;;;;;;10.37;4.97;;;6.90;51.90;;;;;;4160049;28;20320;-66
2021/03/09 10:25:16;;;;;;;8.33;5.23;;;6.80;52.10;;;;;;4161079;28;20049;-66
2021/03/09 10:27:23;;;;;;;11.90;6.27;;;6.80;52.40;;;;;;4159972;28;20266;-65
2021/03/09 10:29:28;;;;;;;8.47;4.83;;;6.80;52.60;;;;;;4161320;28;21097;-65
2021/03/09 10:32:02;;;;;;;7.73;4.60;;;7.00;52.80;;;;;;4158879;28;20477;-67
2021/03/09 10:34:04;;;;;;;9.87;4.40;;;7.10;51.40;;;;;;4149571;28;20045;-65
2021/03/09 10:36:08;;;;;;;15.87;7.83;;;7.10;52.10;;;;;;4159781;28;20282;-64
2021/03/09 10:38:24;;;;;;;10.83;5.67;;;7.10;51.90;;;;;;4162085;28;20029;-67
2021/03/09 10:40:33;;;;;;;14.23;7.60;;;7.10;51.20;;;;;;4160249;28;20352;-67
2021/03/09 10:42:38;;;;;;;8.33;4.63;;;7.10;51.80;;;;;;4161817;28;20025;-64